Seven Oaks, California
Current Conditions -  °F | °C
As of 2:55 AM on Friday 21 Nov 2014 (Local Time) from KL35 Reporting Station
Light Rain Light Rain  
Wind Chill: 34°   Ceiling: 1500
Heat Index: 34°   Visibility: 4mi
Dew Point: 32°   Wind: 0mph
Humidity: 93%   Direction: NA
Pressure: 29.98"   Gusts: NA
Location:  34.1811°N, 116.928°W
Report Text: KL35 211055Z AUTO 00000KT 4SM -RA SCT009 BKN015 OVC022 01/00 A2998 RMK AO2 P0002
Loading
Personal Weather Stations






























Interactive Weather Map New forecast layout! Learn more

10-Day Weather Forecast

Advertisements
Track Severe Weather on mobile